createdAt,value
2023-05-09T00:03:30.540Z,100.0
2023-05-09T00:09:02.388Z,100.0
2023-05-09T00:14:34.103Z,100.0
2023-05-09T00:20:10.105Z,100.0
2023-05-09T00:25:41.832Z,100.0
2023-05-09T00:31:13.580Z,100.0
2023-05-09T00:36:45.387Z,100.0
2023-05-09T00:42:17.091Z,100.0
2023-05-09T00:47:48.826Z,100.0
2023-05-09T00:53:20.577Z,100.0
2023-05-09T00:58:52.160Z,100.0
2023-05-09T01:04:24.055Z,100.0
2023-05-09T01:09:55.683Z,100.0
2023-05-09T01:15:27.438Z,100.0
2023-05-09T01:21:03.548Z,100.0
2023-05-09T01:26:35.536Z,100.0
2023-05-09T01:32:06.974Z,100.0
2023-05-09T01:37:38.703Z,100.0
2023-05-09T01:43:10.417Z,100.0
2023-05-09T01:48:42.287Z,100.0
2023-05-09T01:54:13.906Z,100.0
2023-05-09T01:59:45.652Z,100.0
2023-05-09T02:05:17.738Z,100.0
2023-05-09T02:10:49.133Z,100.0
2023-05-09T02:16:21.331Z,100.0
2023-05-09T02:21:58.941Z,100.0
2023-05-09T02:27:30.682Z,100.0
2023-05-09T02:33:02.537Z,100.0
2023-05-09T02:38:34.207Z,100.0
2023-05-09T02:44:05.922Z,100.0
2023-05-09T02:49:37.640Z,100.0
2023-05-09T02:55:09.318Z,100.0
2023-05-09T03:00:41.036Z,100.0
2023-05-09T03:06:12.735Z,100.0
2023-05-09T03:11:44.418Z,100.0
2023-05-09T03:17:16.213Z,100.0
2023-05-09T03:22:54.333Z,100.0
2023-05-09T03:28:25.977Z,100.0
2023-05-09T03:33:58.009Z,100.0
2023-05-09T03:39:29.461Z,100.0
2023-05-09T03:45:01.246Z,100.0
2023-05-09T03:50:32.915Z,100.0
2023-05-09T03:56:04.813Z,100.0
2023-05-09T04:01:40.052Z,100.0
2023-05-09T04:07:08.106Z,100.0
2023-05-09T04:12:39.871Z,100.0
2023-05-09T04:18:11.516Z,100.0
2023-05-09T04:23:49.658Z,100.0
2023-05-09T04:29:21.396Z,100.0
2023-05-09T04:34:53.122Z,100.0
2023-05-09T04:40:27.142Z,100.0
2023-05-09T04:45:56.638Z,100.0
2023-05-09T04:51:28.849Z,100.0
2023-05-09T04:57:17.680Z,100.0
2023-05-09T05:02:31.926Z,100.0
2023-05-09T05:08:03.606Z,100.0
2023-05-09T05:13:35.292Z,100.0
2023-05-09T05:19:06.904Z,100.0
2023-05-09T05:24:43.058Z,100.0
2023-05-09T05:30:15.290Z,100.0
2023-05-09T05:35:46.548Z,100.0
2023-05-09T05:41:18.318Z,100.0
2023-05-09T05:46:50.067Z,100.0
2023-05-09T05:52:21.782Z,100.0
2023-05-09T05:57:53.557Z,100.0
2023-05-09T06:03:25.396Z,100.0
2023-05-09T06:08:56.977Z,100.0
2023-05-09T06:14:28.629Z,100.0
2023-05-09T06:20:00.478Z,100.0
2023-05-09T06:25:36.637Z,100.0
2023-05-09T06:31:08.515Z,100.0
2023-05-09T06:36:39.987Z,100.0
2023-05-09T06:42:11.792Z,100.0
2023-05-09T06:47:43.579Z,100.0
2023-05-09T06:53:15.171Z,100.0
2023-05-09T06:58:46.884Z,100.0
2023-05-09T07:04:18.611Z,100.0
2023-05-09T07:10:03.941Z,100.0
2023-05-09T07:15:41.732Z,100.0
2023-05-09T07:20:53.856Z,100.0
2023-05-09T07:26:29.922Z,100.0
2023-05-09T07:32:01.755Z,100.0
2023-05-09T07:37:33.520Z,100.0
2023-05-09T07:43:05.124Z,100.0
2023-05-09T07:48:36.837Z,100.0
2023-05-09T07:54:08.646Z,100.0
2023-05-09T07:59:40.292Z,100.0
2023-05-09T08:05:12.195Z,100.0
2023-05-09T08:10:43.937Z,100.0
2023-05-09T08:16:15.688Z,100.0
2023-05-09T08:21:47.323Z,100.0
2023-05-09T08:27:23.431Z,100.0
2023-05-09T08:32:55.353Z,100.0
2023-05-09T08:38:26.977Z,100.0
2023-05-09T08:44:02.905Z,100.0
2023-05-09T08:49:30.445Z,100.0
2023-05-09T08:55:02.633Z,100.0
2023-05-09T09:00:33.804Z,100.0
2023-05-09T09:06:05.607Z,100.0
2023-05-09T09:11:37.249Z,100.0
2023-05-09T09:17:09.383Z,100.0
2023-05-09T09:22:40.655Z,100.0
2023-05-09T09:28:17.204Z,100.0
2023-05-09T09:33:48.471Z,100.0
2023-05-09T09:39:20.290Z,100.0
2023-05-09T09:44:52.133Z,100.0
2023-05-09T09:50:24.132Z,100.0
2023-05-09T09:55:55.483Z,100.0
2023-05-09T10:01:27.445Z,98.12
2023-05-09T10:06:59.175Z,96.33
2023-05-09T10:12:30.856Z,97.83
2023-05-09T10:18:02.879Z,98.92
2023-05-09T10:23:34.270Z,96.63
2023-05-09T10:29:10.375Z,95.51
2023-05-09T10:34:42.150Z,94.39
2023-05-09T10:40:13.879Z,93.48
2023-05-09T10:45:45.556Z,98.13
2023-05-09T10:51:17.266Z,92.95
2023-05-09T10:56:49.528Z,92.23
2023-05-09T11:02:20.729Z,95.26
2023-05-09T11:07:52.490Z,93.13
2023-05-09T11:13:24.684Z,93.0
2023-05-09T11:18:56.238Z,94.23
2023-05-09T11:24:27.566Z,89.8
2023-05-09T11:30:05.825Z,90.34
2023-05-09T11:35:37.557Z,89.48
2023-05-09T11:41:09.193Z,86.99
2023-05-09T11:46:40.967Z,87.77
2023-05-09T11:52:12.957Z,90.33
2023-05-09T11:57:44.401Z,90.45
2023-05-09T12:03:16.453Z,82.43
2023-05-09T12:08:47.818Z,86.31
2023-05-09T12:14:19.540Z,85.99
2023-05-09T12:19:51.896Z,86.35
2023-05-09T12:25:23.147Z,86.88
2023-05-09T12:31:01.279Z,86.25
2023-05-09T12:36:32.906Z,86.74
2023-05-09T12:42:04.711Z,88.01
2023-05-09T12:47:36.395Z,83.89
2023-05-09T12:53:08.152Z,84.07
2023-05-09T12:58:40.187Z,86.19
2023-05-09T13:04:13.288Z,84.49
2023-05-09T13:09:43.406Z,87.34
2023-05-09T13:15:15.854Z,84.32
2023-05-09T13:20:47.118Z,84.83
2023-05-09T13:26:18.244Z,85.18
2023-05-09T13:31:54.524Z,85.56
2023-05-09T13:37:26.202Z,83.54
2023-05-09T13:42:57.948Z,84.7
2023-05-09T13:48:29.674Z,82.98
2023-05-09T13:54:01.446Z,81.59
2023-05-09T13:59:33.495Z,80.72
2023-05-09T14:05:04.832Z,82.81
2023-05-09T14:10:36.731Z,81.94
2023-05-09T14:16:08.427Z,81.99
2023-05-09T14:21:40.081Z,83.22
2023-05-09T14:27:11.822Z,85.27
2023-05-09T14:32:47.929Z,81.16
2023-05-09T14:38:20.599Z,81.02
2023-05-09T14:43:51.428Z,80.16
2023-05-09T14:49:23.078Z,83.27
2023-05-09T14:54:54.791Z,81.14
2023-05-09T15:00:27.684Z,82.86
2023-05-09T15:05:58.237Z,82.86
2023-05-09T15:11:47.312Z,84.08
2023-05-09T15:17:02.510Z,82.5
2023-05-09T15:22:33.572Z,80.31
2023-05-09T15:28:05.234Z,82.73
2023-05-09T15:33:41.290Z,79.93
2023-05-09T15:39:12.860Z,82.81
2023-05-09T15:44:44.706Z,77.25
2023-05-09T15:50:16.968Z,77.65
2023-05-09T15:55:48.786Z,78.65
2023-05-09T16:01:19.859Z,82.52
2023-05-09T16:06:51.451Z,84.27
2023-05-09T16:12:23.220Z,87.25
2023-05-09T16:17:56.283Z,91.08
2023-05-09T16:23:26.713Z,93.35
2023-05-09T16:28:58.319Z,90.96
2023-05-09T16:34:34.450Z,90.76
2023-05-09T16:40:06.327Z,92.89
2023-05-09T16:45:38.097Z,96.09
2023-05-09T16:51:09.638Z,98.5
2023-05-09T16:56:41.388Z,98.72
2023-05-09T17:02:13.207Z,100.0
2023-05-09T17:07:44.913Z,95.43
2023-05-09T17:13:17.015Z,93.01
2023-05-09T17:18:48.366Z,97.9
2023-05-09T17:24:20.137Z,98.93
2023-05-09T17:29:51.837Z,100.0
2023-05-09T17:35:29.950Z,100.0
2023-05-09T17:41:01.673Z,100.0
2023-05-09T17:46:33.372Z,100.0
2023-05-09T17:52:05.105Z,100.0
2023-05-09T17:57:37.096Z,100.0
2023-05-09T18:03:08.735Z,100.0
2023-05-09T18:08:40.320Z,100.0
2023-05-09T18:14:12.007Z,100.0
2023-05-09T18:19:43.715Z,100.0
2023-05-09T18:25:15.421Z,100.0
2023-05-09T18:30:47.107Z,100.0
2023-05-09T18:36:23.310Z,100.0
2023-05-09T18:41:54.998Z,100.0
2023-05-09T18:47:26.889Z,100.0
2023-05-09T18:52:58.435Z,100.0
2023-05-09T18:58:31.237Z,100.0
2023-05-09T19:04:02.022Z,100.0
2023-05-09T19:09:33.610Z,100.0
2023-05-09T19:15:05.311Z,100.0
2023-05-09T19:20:37.093Z,100.0
2023-05-09T19:26:08.859Z,100.0
2023-05-09T19:31:40.446Z,100.0
2023-05-09T19:37:18.729Z,100.0
2023-05-09T19:42:50.442Z,100.0
2023-05-09T19:48:22.394Z,100.0
2023-05-09T19:53:53.884Z,100.0
2023-05-09T19:59:25.566Z,100.0
2023-05-09T20:04:57.396Z,100.0
2023-05-09T20:10:28.972Z,100.0
2023-05-09T20:16:01.330Z,100.0
2023-05-09T20:21:32.301Z,100.0
2023-05-09T20:27:04.237Z,100.0
2023-05-09T20:32:35.866Z,100.0
2023-05-09T20:38:14.329Z,100.0
2023-05-09T20:43:45.670Z,100.0
2023-05-09T20:49:17.370Z,100.0
2023-05-09T20:54:49.944Z,100.0
2023-05-09T21:00:21.827Z,100.0
2023-05-09T21:05:52.683Z,100.0
2023-05-09T21:11:24.310Z,100.0
2023-05-09T21:16:57.325Z,100.0
2023-05-09T21:22:27.839Z,100.0
2023-05-09T21:27:59.532Z,100.0
2023-05-09T21:33:31.296Z,100.0
2023-05-09T21:39:07.628Z,100.0
2023-05-09T21:44:39.174Z,100.0
2023-05-09T21:50:10.991Z,100.0
2023-05-09T21:55:42.538Z,100.0
2023-05-09T22:01:14.352Z,100.0
2023-05-09T22:06:46.111Z,100.0
2023-05-09T22:12:17.781Z,100.0
2023-05-09T22:17:49.578Z,100.0
2023-05-09T22:23:21.811Z,100.0
2023-05-09T22:28:53.057Z,100.0
2023-05-09T22:34:24.713Z,100.0
2023-05-09T22:40:00.793Z,100.0
2023-05-09T22:45:32.511Z,100.0
2023-05-09T22:51:04.382Z,100.0
2023-05-09T22:56:36.372Z,100.0
2023-05-09T23:02:07.822Z,100.0
2023-05-09T23:07:39.523Z,100.0
2023-05-09T23:13:11.106Z,100.0
2023-05-09T23:18:43.371Z,100.0
2023-05-09T23:24:14.550Z,100.0
2023-05-09T23:29:46.488Z,100.0
2023-05-09T23:35:18.069Z,100.0
2023-05-09T23:40:54.477Z,100.0
2023-05-09T23:46:25.934Z,100.0
2023-05-09T23:51:57.457Z,100.0
2023-05-09T23:57:29.328Z,100.0
